createdAt,value
2018-09-04T00:01:09.257Z,24.00
2018-09-04T00:03:39.426Z,23.23
2018-09-04T00:06:09.531Z,25.57
2018-09-04T00:08:39.581Z,24.63
2018-09-04T00:11:09.634Z,22.80
2018-09-04T00:13:51.182Z,23.60
2018-09-04T00:16:21.410Z,25.70
2018-09-04T00:18:51.411Z,24.87
2018-09-04T00:21:21.457Z,24.77
2018-09-04T00:23:51.445Z,24.73
2018-09-04T00:26:21.511Z,23.43
2018-09-04T00:28:51.395Z,24.47
2018-09-04T00:31:21.467Z,24.40
2018-09-04T00:34:01.988Z,26.10
2018-09-04T00:36:38.679Z,26.50
2018-09-04T00:39:14.285Z,24.53
2018-09-04T00:41:48.657Z,26.70
2018-09-04T00:44:42.069Z,25.70
2018-09-04T00:47:19.664Z,24.03
2018-09-04T00:49:49.544Z,26.00
2018-09-04T00:52:19.831Z,26.90
2018-09-04T00:54:50.832Z,26.20
2018-09-04T00:57:20.911Z,24.67
2018-09-04T00:59:50.833Z,23.63
2018-09-04T01:02:34.782Z,24.40
2018-09-04T01:05:04.693Z,26.30
2018-09-04T01:07:34.542Z,27.37
2018-09-04T01:10:04.864Z,25.47
2018-09-04T01:12:35.214Z,24.20
2018-09-04T01:15:06.128Z,29.73
2018-09-04T01:20:45.745Z,33.50
2018-09-04T01:23:25.594Z,30.13
2018-09-04T01:26:19.436Z,29.87
2018-09-04T01:28:49.653Z,29.40
2018-09-04T01:31:27.839Z,27.13
2018-09-04T01:37:08.724Z,28.60
2018-09-04T01:46:05.988Z,25.07
2018-09-04T01:49:03.782Z,26.43
2018-09-04T01:51:33.702Z,29.33
2018-09-04T01:57:03.013Z,30.27
2018-09-04T02:02:32.917Z,28.60
2018-09-04T02:05:03.216Z,32.80
2018-09-04T02:07:33.327Z,30.10
2018-09-04T02:10:03.553Z,28.77
2018-09-04T02:18:43.613Z,26.67
2018-09-04T02:21:13.458Z,29.53
2018-09-04T02:23:43.308Z,29.43
2018-09-04T02:26:13.686Z,27.83
2018-09-04T02:28:56.994Z,29.03
2018-09-04T02:31:27.673Z,30.33
2018-09-04T02:33:58.005Z,30.47
2018-09-04T02:39:56.761Z,35.13
2018-09-04T02:42:27.016Z,33.40
2018-09-04T02:45:05.211Z,30.83
2018-09-04T02:47:37.394Z,35.30
2018-09-04T02:50:08.026Z,33.57
2018-09-04T02:52:54.286Z,36.23
2018-09-04T02:55:42.384Z,37.10
2018-09-04T02:58:12.305Z,31.80
2018-09-04T03:00:42.175Z,35.10
2018-09-04T03:03:24.416Z,34.23
2018-09-04T03:05:54.122Z,34.27
2018-09-04T03:11:28.861Z,34.83
2018-09-04T03:14:20.606Z,38.33
2018-09-04T03:16:50.645Z,31.63
2018-09-04T03:28:51.309Z,34.30
2018-09-04T03:31:22.934Z,38.47
2018-09-04T03:33:53.232Z,41.03
2018-09-04T03:39:34.121Z,37.80
2018-09-04T03:42:04.457Z,35.63
2018-09-04T03:44:34.542Z,36.73
2018-09-04T03:47:28.423Z,36.67
2018-09-04T03:49:58.393Z,32.33
2018-09-04T03:55:44.864Z,35.47
2018-09-04T03:58:41.614Z,35.83
2018-09-04T04:01:40.193Z,34.20
2018-09-04T04:04:10.383Z,31.40
2018-09-04T04:06:40.215Z,33.60
2018-09-04T04:09:11.918Z,34.93
2018-09-04T04:11:42.053Z,31.30
2018-09-04T04:17:34.703Z,32.17
2018-09-04T04:20:34.266Z,35.50
2018-09-04T04:23:18.720Z,38.67
2018-09-04T04:25:48.895Z,36.10
2018-09-04T04:28:19.249Z,38.67
2018-09-04T04:30:53.201Z,32.10
2018-09-04T04:33:23.443Z,37.57
2018-09-04T04:39:10.938Z,29.77
2018-09-04T04:41:59.349Z,30.93
2018-09-04T04:44:41.512Z,35.30
2018-09-04T04:59:51.220Z,32.93
2018-09-04T05:08:40.897Z,28.27
2018-09-04T05:11:11.109Z,29.27
2018-09-04T05:13:40.859Z,29.83
2018-09-04T05:16:11.239Z,32.73
2018-09-04T05:18:41.401Z,32.40
2018-09-04T05:21:17.142Z,29.00
2018-09-04T05:23:47.228Z,32.37
2018-09-04T05:26:39.281Z,31.40
2018-09-04T05:32:09.287Z,33.37
2018-09-04T05:34:39.751Z,32.10
2018-09-04T05:37:10.093Z,34.63
2018-09-04T05:39:41.153Z,29.57
2018-09-04T05:45:41.819Z,32.20
2018-09-04T05:48:13.956Z,33.70
2018-09-04T05:50:55.508Z,43.70
2018-09-04T05:53:25.716Z,36.57
2018-09-04T05:55:55.903Z,41.13
2018-09-04T05:58:26.136Z,44.90
2018-09-04T06:01:03.080Z,52.47
2018-09-04T06:03:48.710Z,50.67
2018-09-04T06:06:18.563Z,45.17
2018-09-04T06:08:49.008Z,47.23
2018-09-04T06:11:18.897Z,46.57
2018-09-04T06:23:09.276Z,49.70
2018-09-04T06:28:38.621Z,53.17
2018-09-04T06:31:10.581Z,53.63
2018-09-04T06:33:40.702Z,49.77
2018-09-04T06:36:10.498Z,58.60
2018-09-04T06:38:40.469Z,59.00
2018-09-04T06:41:10.432Z,64.23
2018-09-04T06:43:40.288Z,53.27
2018-09-04T06:46:10.176Z,68.97
2018-09-04T06:48:40.181Z,66.97
2018-09-04T06:54:26.386Z,74.73
2018-09-04T06:57:21.910Z,66.80
2018-09-04T07:02:51.301Z,85.97
2018-09-04T07:05:24.769Z,70.00
2018-09-04T07:07:54.999Z,86.57
2018-09-04T07:10:24.830Z,87.80
2018-09-04T07:13:04.129Z,82.60
2018-09-04T07:15:34.382Z,82.40
2018-09-04T07:18:09.633Z,85.30
2018-09-04T07:20:39.681Z,79.97
2018-09-04T07:23:10.048Z,84.77
2018-09-04T07:25:40.024Z,76.90
2018-09-04T07:28:10.325Z,80.13
2018-09-04T07:30:40.586Z,78.70
2018-09-04T07:33:11.137Z,79.97
2018-09-04T07:35:41.632Z,89.67
2018-09-04T07:38:11.719Z,81.90
2018-09-04T07:40:42.155Z,91.23
2018-09-04T07:43:12.408Z,85.87
2018-09-04T07:45:42.949Z,85.00
2018-09-04T07:48:13.172Z,88.00
2018-09-04T07:50:43.548Z,94.97
2018-09-04T07:53:13.619Z,85.33
2018-09-04T07:56:02.774Z,88.83
2018-09-04T07:58:33.776Z,85.47
2018-09-04T08:01:04.653Z,92.33
2018-09-04T08:03:35.465Z,91.40
2018-09-04T08:06:05.347Z,93.67
2018-09-04T08:08:35.490Z,88.60
2018-09-04T08:11:06.484Z,94.17
2018-09-04T08:13:36.316Z,95.63
2018-09-04T08:16:06.468Z,96.40
2018-09-04T08:21:46.842Z,92.03
2018-09-04T08:24:16.631Z,91.77
2018-09-04T08:26:46.612Z,89.80
2018-09-04T08:29:16.946Z,92.33
2018-09-04T08:34:47.566Z,88.50
2018-09-04T08:37:17.856Z,91.50
2018-09-04T08:39:49.550Z,78.50
2018-09-04T08:42:19.737Z,82.90
2018-09-04T08:44:50.980Z,83.17
2018-09-04T08:47:21.472Z,81.63
2018-09-04T08:49:54.600Z,82.77
2018-09-04T08:52:24.401Z,82.33
2018-09-04T08:54:54.567Z,79.33
2018-09-04T08:57:24.607Z,79.23
2018-09-04T08:59:55.012Z,81.90
2018-09-04T09:02:24.982Z,74.53
2018-09-04T09:04:56.176Z,81.23
2018-09-04T09:07:26.484Z,85.50
2018-09-04T09:09:56.693Z,74.40
2018-09-04T09:12:26.869Z,76.70
2018-09-04T09:14:56.994Z,72.63
2018-09-04T09:17:27.225Z,72.17
2018-09-04T09:23:03.403Z,69.87
2018-09-04T09:25:33.597Z,68.73
2018-09-04T09:28:10.970Z,67.30
2018-09-04T09:30:41.042Z,72.90
2018-09-04T09:33:12.104Z,71.00
2018-09-04T09:41:53.526Z,69.63
2018-09-04T09:44:23.327Z,70.20
2018-09-04T09:46:57.656Z,63.20
2018-09-04T09:49:39.637Z,59.93
2018-09-04T09:52:09.947Z,63.23
2018-09-04T09:54:40.227Z,58.33
2018-09-04T09:57:19.443Z,60.37
2018-09-04T09:59:50.297Z,63.30
2018-09-04T10:02:22.415Z,62.20
2018-09-04T10:04:52.635Z,62.50
2018-09-04T10:07:22.583Z,63.77
2018-09-04T10:09:52.597Z,64.20
2018-09-04T10:12:44.696Z,58.97
2018-09-04T10:15:14.981Z,63.33
2018-09-04T10:17:45.360Z,56.93
2018-09-04T10:23:15.913Z,62.73
2018-09-04T10:32:08.886Z,54.67
2018-09-04T10:37:49.729Z,59.73
2018-09-04T10:41:01.385Z,59.73
2018-09-04T10:46:41.540Z,58.53
2018-09-04T10:49:11.822Z,50.73
2018-09-04T10:51:41.799Z,51.80
2018-09-04T10:54:15.398Z,50.03
2018-09-04T11:02:41.496Z,50.27
2018-09-04T11:05:12.087Z,46.90
2018-09-04T11:07:42.815Z,47.53
2018-09-04T11:10:13.104Z,43.93
2018-09-04T11:12:43.286Z,42.97
2018-09-04T11:15:13.393Z,45.87
2018-09-04T11:17:43.512Z,44.03
2018-09-04T11:20:13.541Z,45.27
2018-09-04T11:25:27.561Z,44.83
2018-09-04T11:28:28.798Z,38.50
2018-09-04T11:34:09.080Z,34.93
2018-09-04T11:39:47.704Z,35.57
2018-09-04T11:44:56.374Z,33.90
2018-09-04T11:47:51.141Z,33.00
2018-09-04T11:50:21.281Z,35.07
2018-09-04T11:52:51.965Z,35.30
2018-09-04T11:55:23.744Z,37.97
2018-09-04T11:57:53.936Z,33.27
2018-09-04T12:00:40.970Z,35.17
2018-09-04T12:03:16.412Z,33.70
2018-09-04T12:05:46.725Z,28.20
2018-09-04T12:08:31.563Z,32.20
2018-09-04T12:11:11.742Z,32.13
2018-09-04T12:13:42.000Z,31.90
2018-09-04T12:16:15.201Z,28.10
2018-09-04T12:18:45.272Z,25.17
2018-09-04T12:21:26.296Z,29.00
2018-09-04T12:23:56.177Z,26.07
2018-09-04T12:26:26.301Z,27.50
2018-09-04T12:28:56.136Z,29.93
2018-09-04T12:31:26.571Z,31.80
2018-09-04T12:33:57.274Z,32.07
2018-09-04T12:36:27.397Z,31.93
2018-09-04T12:39:05.866Z,31.13
2018-09-04T12:41:36.061Z,33.50
2018-09-04T12:44:06.201Z,28.87
2018-09-04T12:46:36.390Z,33.93
2018-09-04T12:49:06.260Z,29.40
2018-09-04T12:51:42.328Z,31.30
2018-09-04T12:54:16.266Z,29.13
2018-09-04T12:56:46.436Z,27.40
2018-09-04T12:59:16.639Z,32.17
2018-09-04T13:01:48.052Z,31.40
2018-09-04T13:04:18.580Z,29.70
2018-09-04T13:06:49.513Z,30.57
2018-09-04T13:09:24.937Z,30.80
2018-09-04T13:11:55.042Z,27.33
2018-09-04T13:14:25.826Z,28.63
2018-09-04T13:16:55.731Z,27.20
2018-09-04T13:19:25.588Z,30.80
2018-09-04T13:28:02.526Z,28.20
2018-09-04T13:30:32.925Z,25.37
2018-09-04T13:33:03.063Z,26.03
2018-09-04T13:35:39.137Z,25.83
2018-09-04T13:38:13.288Z,23.00
2018-09-04T13:40:43.566Z,22.67
2018-09-04T13:43:13.648Z,19.13
2018-09-04T13:45:51.090Z,22.33
2018-09-04T13:51:31.554Z,20.47
2018-09-04T13:54:01.606Z,20.73
2018-09-04T13:56:31.895Z,18.93
2018-09-04T13:59:01.994Z,21.07
2018-09-04T14:07:31.971Z,18.40
2018-09-04T14:10:08.559Z,20.60
2018-09-04T14:15:49.518Z,21.10
2018-09-04T14:18:19.935Z,20.07
2018-09-04T14:21:14.388Z,20.40
2018-09-04T14:23:45.102Z,21.00
2018-09-04T14:26:15.288Z,23.27
2018-09-04T14:31:57.594Z,22.17
2018-09-04T14:34:27.926Z,21.10
2018-09-04T14:43:18.927Z,21.03
2018-09-04T14:45:49.688Z,25.57
2018-09-04T14:48:19.868Z,24.20
2018-09-04T14:50:49.836Z,22.50
2018-09-04T14:53:19.937Z,23.70
2018-09-04T14:55:50.634Z,23.17
2018-09-04T14:58:21.353Z,22.70
2018-09-04T15:00:51.730Z,24.83
2018-09-04T15:03:22.545Z,29.50
2018-09-04T15:12:02.133Z,32.97
2018-09-04T15:14:32.578Z,33.93
2018-09-04T15:17:02.743Z,31.20
2018-09-04T15:22:55.079Z,28.00
2018-09-04T15:25:25.438Z,26.20
2018-09-04T15:34:39.693Z,23.60
2018-09-04T15:37:09.677Z,24.10
2018-09-04T15:39:39.628Z,23.73
2018-09-04T15:42:09.427Z,23.00
2018-09-04T15:44:39.417Z,22.67
2018-09-04T15:47:09.401Z,22.80
2018-09-04T15:49:49.674Z,24.50
2018-09-04T15:56:04.882Z,25.97
2018-09-04T16:01:29.735Z,24.50
2018-09-04T16:03:59.708Z,25.10
2018-09-04T16:06:29.569Z,25.60
2018-09-04T16:08:59.623Z,26.30
2018-09-04T16:11:38.470Z,24.40
2018-09-04T16:14:09.236Z,25.17
2018-09-04T16:16:53.497Z,24.00
2018-09-04T16:19:23.981Z,31.17
2018-09-04T16:21:53.762Z,25.77
2018-09-04T16:24:24.125Z,24.67
2018-09-04T16:26:54.467Z,25.57
2018-09-04T16:31:58.856Z,27.27
2018-09-04T16:37:28.807Z,28.50
2018-09-04T16:40:06.365Z,25.60
2018-09-04T16:42:36.401Z,28.33
2018-09-04T16:45:06.555Z,24.47
2018-09-04T16:47:36.585Z,25.80
2018-09-04T16:50:10.238Z,25.07
2018-09-04T16:52:41.286Z,28.70
2018-09-04T16:55:11.198Z,28.50
2018-09-04T16:57:48.186Z,26.37
2018-09-04T17:00:18.040Z,25.73
2018-09-04T17:02:48.116Z,24.43
2018-09-04T17:05:18.100Z,24.73
2018-09-04T17:10:43.695Z,25.03
2018-09-04T17:13:13.723Z,27.50
2018-09-04T17:15:44.040Z,26.83
2018-09-04T17:18:13.960Z,25.70
2018-09-04T17:20:43.887Z,25.37
2018-09-04T17:23:18.200Z,25.50
2018-09-04T17:25:48.263Z,25.83
2018-09-04T17:31:21.145Z,28.33
2018-09-04T17:33:51.530Z,28.23
2018-09-04T17:36:21.693Z,29.33
2018-09-04T17:38:51.688Z,28.63
2018-09-04T17:41:27.128Z,30.40
2018-09-04T17:43:57.941Z,28.60
2018-09-04T17:46:31.384Z,32.33
2018-09-04T17:49:01.346Z,29.73
2018-09-04T17:51:31.292Z,31.80
2018-09-04T17:54:01.191Z,30.03
2018-09-04T17:56:44.557Z,30.77
2018-09-04T17:59:14.899Z,29.70
2018-09-04T18:01:44.816Z,31.30
2018-09-04T18:04:19.326Z,30.73
2018-09-04T18:06:50.881Z,34.33
2018-09-04T18:09:20.808Z,35.00
2018-09-04T18:12:05.213Z,34.83
2018-09-04T18:15:01.148Z,34.50
2018-09-04T18:17:31.182Z,33.03
2018-09-04T18:22:56.529Z,32.43
2018-09-04T18:25:26.473Z,31.37
2018-09-04T18:27:56.822Z,29.73
2018-09-04T18:30:44.845Z,29.73
2018-09-04T18:33:15.026Z,31.87
2018-09-04T18:35:45.493Z,29.03
2018-09-04T18:38:15.403Z,31.30
2018-09-04T18:40:45.339Z,30.90
2018-09-04T18:43:15.121Z,32.30
2018-09-04T18:45:52.383Z,30.53
2018-09-04T18:48:22.241Z,34.73
2018-09-04T18:50:52.221Z,34.87
2018-09-04T18:53:22.053Z,32.50
2018-09-04T18:55:51.945Z,31.73
2018-09-04T18:58:23.070Z,29.90
2018-09-04T19:00:52.885Z,31.47
2018-09-04T19:03:23.125Z,30.60
2018-09-04T19:05:52.925Z,30.70
2018-09-04T19:08:24.812Z,29.77
2018-09-04T19:10:55.251Z,29.83
2018-09-04T19:13:28.763Z,32.37
2018-09-04T19:15:58.897Z,29.27
2018-09-04T19:18:37.907Z,31.07
2018-09-04T19:21:08.973Z,33.77
2018-09-04T19:23:41.069Z,31.00
2018-09-04T19:26:11.147Z,32.33
2018-09-04T19:28:41.712Z,28.93
2018-09-04T19:31:11.630Z,28.73
2018-09-04T19:33:41.440Z,29.53
2018-09-04T19:36:11.379Z,30.27
2018-09-04T19:38:41.341Z,28.67
2018-09-04T19:41:11.315Z,31.00
2018-09-04T19:43:41.276Z,31.20
2018-09-04T19:46:11.281Z,32.70
2018-09-04T19:48:41.143Z,30.40
2018-09-04T19:51:11.111Z,27.77
2018-09-04T19:53:41.623Z,28.30
2018-09-04T19:56:11.432Z,27.57
2018-09-04T19:58:41.308Z,29.33
2018-09-04T20:01:11.926Z,31.37
2018-09-04T20:03:41.740Z,28.70
2018-09-04T20:06:11.911Z,29.23
2018-09-04T20:08:42.527Z,30.80
2018-09-04T20:11:12.428Z,30.70
2018-09-04T20:13:42.708Z,30.50
2018-09-04T20:16:12.479Z,30.13
2018-09-04T20:18:44.872Z,31.70
2018-09-04T20:21:15.838Z,30.53
2018-09-04T20:23:45.784Z,31.20
2018-09-04T20:26:15.756Z,33.20
2018-09-04T20:28:45.835Z,33.97
2018-09-04T20:31:15.655Z,32.80
2018-09-04T20:33:46.531Z,33.17
2018-09-04T20:36:16.518Z,32.27
2018-09-04T20:38:46.556Z,34.43
2018-09-04T20:41:16.496Z,29.80
2018-09-04T20:43:46.631Z,30.67
2018-09-04T20:46:16.642Z,33.00
2018-09-04T20:48:46.620Z,31.37
2018-09-04T20:51:16.491Z,32.93
2018-09-04T20:53:46.625Z,32.80
2018-09-04T20:56:20.796Z,31.80
2018-09-04T20:59:07.154Z,33.50
2018-09-04T21:05:03.764Z,34.00
2018-09-04T21:08:56.451Z,33.23
2018-09-04T21:11:26.414Z,33.03
2018-09-04T21:13:57.314Z,34.17
2018-09-04T21:16:27.336Z,30.90
2018-09-04T21:25:16.499Z,31.10
2018-09-04T21:27:46.487Z,30.77
2018-09-04T21:30:16.532Z,32.20
2018-09-04T21:32:47.302Z,32.83
2018-09-04T21:35:17.335Z,30.37
2018-09-04T21:37:58.551Z,29.83
2018-09-04T21:43:40.518Z,30.77
2018-09-04T21:46:10.622Z,30.10
2018-09-04T21:48:40.753Z,30.93
2018-09-04T21:54:20.109Z,29.27
2018-09-04T21:56:50.486Z,31.27
2018-09-04T21:59:38.668Z,30.33
2018-09-04T22:02:09.174Z,30.90
2018-09-04T22:04:39.500Z,31.00
2018-09-04T22:07:37.835Z,30.87
2018-09-04T22:13:08.602Z,30.07
2018-09-04T22:15:38.601Z,32.93
2018-09-04T22:18:08.704Z,29.73
2018-09-04T22:20:39.197Z,28.43
2018-09-04T22:23:11.005Z,28.13
2018-09-04T22:25:41.360Z,29.27
2018-09-04T22:28:11.529Z,31.77
2018-09-04T22:31:07.255Z,30.93
2018-09-04T22:33:37.359Z,32.20
2018-09-04T22:39:18.068Z,30.80
2018-09-04T22:41:47.992Z,31.73
2018-09-04T22:44:18.060Z,30.47
2018-09-04T22:46:48.793Z,31.17
2018-09-04T22:49:18.740Z,29.27
2018-09-04T22:51:48.781Z,30.40
2018-09-04T22:54:22.114Z,34.27
2018-09-04T22:57:04.793Z,32.70
2018-09-04T22:59:34.779Z,33.67
2018-09-04T23:02:04.834Z,32.70
2018-09-04T23:04:34.844Z,31.33
2018-09-04T23:07:05.015Z,31.87
2018-09-04T23:09:35.034Z,30.17
2018-09-04T23:12:31.130Z,30.37
2018-09-04T23:18:03.585Z,31.97
2018-09-04T23:20:33.607Z,30.93
2018-09-04T23:26:13.277Z,29.60
2018-09-04T23:28:43.309Z,31.23
2018-09-04T23:31:13.568Z,29.90
2018-09-04T23:33:43.885Z,30.20
2018-09-04T23:36:14.192Z,30.40
2018-09-04T23:38:44.306Z,27.10
2018-09-04T23:41:14.810Z,29.43
2018-09-04T23:43:44.980Z,28.47
2018-09-04T23:46:14.979Z,29.83
2018-09-04T23:48:45.039Z,31.90
2018-09-04T23:51:15.208Z,29.10
2018-09-04T23:56:46.384Z,29.23
2018-09-04T23:59:16.635Z,28.10
